createdAt,value
2017-09-03T00:00:26.877Z,10.80
2017-09-03T00:02:54.442Z,12.10
2017-09-03T00:05:22.021Z,11.77
2017-09-03T00:07:49.603Z,11.00
2017-09-03T00:10:17.927Z,11.70
2017-09-03T00:12:45.510Z,10.93
2017-09-03T00:15:13.089Z,10.97
2017-09-03T00:17:40.653Z,12.20
2017-09-03T00:20:09.001Z,11.00
2017-09-03T00:22:37.397Z,11.30
2017-09-03T00:25:04.986Z,11.67
2017-09-03T00:27:32.576Z,10.67
2017-09-03T00:30:00.213Z,11.10
2017-09-03T00:32:27.776Z,11.37
2017-09-03T00:34:55.337Z,11.23
2017-09-03T00:37:22.939Z,11.97
2017-09-03T00:39:50.538Z,11.23
2017-09-03T00:42:18.170Z,12.57
2017-09-03T00:44:45.799Z,12.30
2017-09-03T00:47:13.415Z,12.20
2017-09-03T00:49:40.982Z,11.50
2017-09-03T00:52:08.554Z,12.20
2017-09-03T00:54:36.914Z,11.50
2017-09-03T00:57:04.499Z,10.40
2017-09-03T00:59:32.845Z,10.50
2017-09-03T01:02:00.511Z,12.17
2017-09-03T01:04:28.082Z,11.70
2017-09-03T01:06:55.641Z,12.20
2017-09-03T01:09:23.214Z,11.30
2017-09-03T01:11:50.782Z,11.33
2017-09-03T01:14:18.371Z,11.00
2017-09-03T01:16:46.053Z,11.60
2017-09-03T01:19:13.634Z,10.83
2017-09-03T01:21:41.201Z,11.77
2017-09-03T01:24:08.793Z,11.33
2017-09-03T01:26:36.375Z,12.00
2017-09-03T01:29:03.962Z,12.40
2017-09-03T01:31:31.567Z,12.30
2017-09-03T01:33:59.143Z,11.20
2017-09-03T01:36:26.733Z,11.60
2017-09-03T01:38:54.344Z,12.07
2017-09-03T01:41:21.931Z,11.00
2017-09-03T01:43:49.500Z,10.80
2017-09-03T01:46:17.106Z,10.57
2017-09-03T01:48:44.677Z,11.07
2017-09-03T01:51:12.222Z,11.37
2017-09-03T01:53:39.805Z,10.67
2017-09-03T01:56:07.389Z,9.80
2017-09-03T01:58:34.974Z,11.40
2017-09-03T02:01:02.535Z,11.60
2017-09-03T02:03:30.106Z,11.40
2017-09-03T02:05:57.702Z,12.23
2017-09-03T02:08:25.319Z,11.57
2017-09-03T02:10:52.923Z,11.50
2017-09-03T02:13:20.457Z,11.30
2017-09-03T02:15:48.085Z,11.40
2017-09-03T02:18:15.661Z,13.83
2017-09-03T02:20:43.246Z,12.50
2017-09-03T02:23:10.802Z,12.07
2017-09-03T02:25:38.413Z,12.17
2017-09-03T02:28:06.001Z,12.37
2017-09-03T02:30:33.597Z,12.07
2017-09-03T02:33:01.193Z,10.67
2017-09-03T02:35:28.765Z,12.83
2017-09-03T02:37:56.394Z,12.30
2017-09-03T02:40:23.993Z,10.80
2017-09-03T02:42:52.343Z,11.27
2017-09-03T02:45:19.966Z,12.40
2017-09-03T02:47:47.546Z,11.63
2017-09-03T02:50:15.078Z,11.80
2017-09-03T02:52:42.679Z,10.90
2017-09-03T02:55:10.266Z,10.97
2017-09-03T02:57:37.892Z,11.00
2017-09-03T03:00:05.478Z,11.43
2017-09-03T03:02:33.045Z,12.53
2017-09-03T03:05:00.662Z,11.30
2017-09-03T03:07:28.265Z,12.03
2017-09-03T03:09:55.878Z,11.17
2017-09-03T03:12:23.502Z,11.60
2017-09-03T03:14:51.091Z,12.30
2017-09-03T03:17:18.664Z,12.27
2017-09-03T03:19:46.238Z,11.80
2017-09-03T03:22:13.818Z,11.60
2017-09-03T03:24:41.397Z,11.33
2017-09-03T03:27:09.867Z,12.60
2017-09-03T03:29:37.470Z,12.43
2017-09-03T03:32:05.055Z,11.90
2017-09-03T03:34:32.661Z,12.30
2017-09-03T03:37:00.235Z,14.17
2017-09-03T03:39:27.803Z,12.77
2017-09-03T03:41:55.418Z,14.10
2017-09-03T03:44:22.986Z,13.90
2017-09-03T03:46:50.564Z,13.70
2017-09-03T03:49:18.152Z,13.20
2017-09-03T03:51:45.731Z,13.57
2017-09-03T03:54:13.310Z,12.77
2017-09-03T03:56:40.866Z,13.10
2017-09-03T03:59:08.507Z,12.60
2017-09-03T04:01:36.075Z,12.63
2017-09-03T04:04:03.663Z,12.20
2017-09-03T04:06:31.221Z,13.37
2017-09-03T04:08:58.790Z,12.50
2017-09-03T04:11:26.382Z,12.10
2017-09-03T04:13:53.962Z,12.03
2017-09-03T04:16:21.529Z,14.00
2017-09-03T04:18:49.098Z,11.77
2017-09-03T04:21:16.702Z,12.23
2017-09-03T04:23:44.289Z,13.80
2017-09-03T04:26:11.864Z,11.90
2017-09-03T04:28:39.431Z,11.50
2017-09-03T04:31:07.070Z,11.27
2017-09-03T04:33:34.704Z,11.83
2017-09-03T04:36:02.259Z,11.40
2017-09-03T04:38:29.837Z,11.43
2017-09-03T04:40:57.430Z,10.83
2017-09-03T04:43:25.016Z,11.53
2017-09-03T04:45:52.606Z,12.40
2017-09-03T04:48:20.223Z,11.50
2017-09-03T04:50:47.779Z,11.83
2017-09-03T04:53:15.396Z,12.60
2017-09-03T04:55:43.013Z,12.67
2017-09-03T04:58:10.597Z,12.40
2017-09-03T05:00:38.201Z,12.70
2017-09-03T05:03:05.767Z,10.67
2017-09-03T05:05:33.358Z,12.90
2017-09-03T05:08:00.973Z,11.77
2017-09-03T05:10:28.648Z,11.87
2017-09-03T05:12:57.005Z,11.50
2017-09-03T05:15:24.591Z,11.50
2017-09-03T05:17:52.186Z,11.93
2017-09-03T05:20:19.777Z,11.67
2017-09-03T05:22:47.362Z,11.87
2017-09-03T05:25:14.951Z,12.23
2017-09-03T05:27:42.534Z,12.80
2017-09-03T05:30:10.151Z,12.40
2017-09-03T05:32:37.756Z,11.73
2017-09-03T05:35:05.381Z,11.50
2017-09-03T05:37:32.986Z,12.40
2017-09-03T05:40:00.561Z,11.57
2017-09-03T05:42:28.237Z,12.20
2017-09-03T05:44:55.818Z,12.10
2017-09-03T05:47:23.421Z,12.27
2017-09-03T05:49:51.021Z,11.40
2017-09-03T05:52:18.624Z,12.23
2017-09-03T05:54:46.237Z,12.10
2017-09-03T05:57:13.826Z,11.17
2017-09-03T05:59:41.389Z,10.00
2017-09-03T06:02:08.986Z,9.17
2017-09-03T06:04:36.610Z,9.20
2017-09-03T06:07:04.161Z,9.40
2017-09-03T06:09:31.745Z,9.43
2017-09-03T06:11:59.320Z,8.70
2017-09-03T06:14:26.897Z,8.67
2017-09-03T06:16:54.475Z,8.20
2017-09-03T06:19:22.046Z,8.20
2017-09-03T06:21:49.621Z,7.90
2017-09-03T06:24:17.184Z,7.93
2017-09-03T06:26:44.792Z,8.10
2017-09-03T06:29:12.402Z,7.97
2017-09-03T06:31:39.992Z,8.33
2017-09-03T06:34:08.342Z,7.80
2017-09-03T06:36:35.901Z,8.20
2017-09-03T06:39:03.480Z,8.00
2017-09-03T06:41:31.810Z,8.40
2017-09-03T06:43:59.406Z,8.40
2017-09-03T06:46:26.976Z,8.03
2017-09-03T06:48:54.545Z,8.17
2017-09-03T06:51:22.905Z,8.90
2017-09-03T06:53:50.474Z,9.23
2017-09-03T06:56:18.102Z,9.07
2017-09-03T06:58:45.666Z,8.37
2017-09-03T07:01:13.292Z,9.00
2017-09-03T07:03:40.880Z,8.97
2017-09-03T07:06:08.463Z,8.97
2017-09-03T07:08:36.026Z,8.30
2017-09-03T07:11:03.605Z,8.50
2017-09-03T07:13:31.210Z,9.50
2017-09-03T07:15:58.774Z,8.80
2017-09-03T07:18:26.405Z,8.70
2017-09-03T07:20:54.005Z,7.80
2017-09-03T07:23:21.598Z,9.37
2017-09-03T07:25:49.165Z,9.53
2017-09-03T07:28:16.734Z,8.90
2017-09-03T07:30:44.327Z,9.50
2017-09-03T07:33:12.004Z,9.47
2017-09-03T07:35:39.601Z,9.20
2017-09-03T07:38:07.200Z,9.47
2017-09-03T07:40:34.774Z,8.87
2017-09-03T07:43:02.358Z,9.53
2017-09-03T07:45:29.946Z,9.53
2017-09-03T07:47:57.559Z,9.20
2017-09-03T07:50:25.134Z,9.30
2017-09-03T07:52:52.733Z,8.63
2017-09-03T07:55:20.298Z,11.20
2017-09-03T07:57:47.926Z,9.80
2017-09-03T08:00:15.510Z,9.30
2017-09-03T08:02:43.122Z,9.53
2017-09-03T08:05:10.687Z,9.80
2017-09-03T08:07:38.278Z,10.00
2017-09-03T08:10:05.885Z,10.07
2017-09-03T08:12:33.453Z,9.90
2017-09-03T08:15:01.007Z,9.73
2017-09-03T08:17:28.698Z,10.23
2017-09-03T08:19:56.463Z,12.73
2017-09-03T08:22:24.167Z,12.40
2017-09-03T08:24:51.758Z,11.80
2017-09-03T08:27:20.098Z,10.93
2017-09-03T08:29:47.679Z,11.27
2017-09-03T08:32:15.234Z,10.30
2017-09-03T08:34:42.818Z,10.97
2017-09-03T08:37:11.151Z,10.20
2017-09-03T08:39:38.746Z,10.90
2017-09-03T08:42:06.316Z,11.63
2017-09-03T08:44:34.880Z,11.23
2017-09-03T08:47:02.489Z,12.07
2017-09-03T08:49:30.095Z,12.47
2017-09-03T08:51:58.667Z,12.27
2017-09-03T08:54:30.487Z,11.63
2017-09-03T08:56:58.099Z,12.00
2017-09-03T08:59:25.717Z,11.90
2017-09-03T09:01:53.313Z,11.33
2017-09-03T09:04:20.889Z,11.10
2017-09-03T09:06:48.463Z,11.80
2017-09-03T09:09:16.045Z,11.10
2017-09-03T09:11:43.625Z,11.83
2017-09-03T09:14:11.229Z,11.40
2017-09-03T09:16:38.812Z,10.60
2017-09-03T09:19:07.177Z,10.00
2017-09-03T09:21:34.778Z,10.00
2017-09-03T09:24:03.113Z,9.30
2017-09-03T09:26:30.722Z,9.20
2017-09-03T09:28:58.305Z,8.67
2017-09-03T09:31:25.902Z,8.70
2017-09-03T09:33:53.494Z,9.87
2017-09-03T09:36:21.056Z,8.20
2017-09-03T09:38:48.650Z,7.33
2017-09-03T09:41:16.321Z,8.47
2017-09-03T09:43:43.886Z,8.50
2017-09-03T09:46:11.462Z,8.00
2017-09-03T09:48:39.031Z,8.10
2017-09-03T09:51:06.609Z,6.80
2017-09-03T09:53:34.170Z,7.43
2017-09-03T09:56:01.852Z,8.00
2017-09-03T09:58:30.276Z,6.80
2017-09-03T10:00:57.882Z,7.60
2017-09-03T10:03:25.456Z,7.13
2017-09-03T10:05:53.047Z,6.70
2017-09-03T10:08:20.609Z,6.37
2017-09-03T10:10:48.198Z,5.53
2017-09-03T10:13:15.775Z,5.03
2017-09-03T10:15:43.339Z,6.40
2017-09-03T10:18:10.899Z,5.20
2017-09-03T10:20:38.562Z,5.87
2017-09-03T10:23:06.119Z,6.53
2017-09-03T10:25:33.702Z,6.10
2017-09-03T10:28:02.040Z,3.33
2017-09-03T10:30:29.630Z,3.00
2017-09-03T10:32:57.203Z,3.80
2017-09-03T10:35:24.794Z,5.30
2017-09-03T10:37:52.370Z,5.00
2017-09-03T10:40:19.945Z,4.70
2017-09-03T10:42:47.531Z,3.90
2017-09-03T10:45:15.121Z,4.40
2017-09-03T10:47:42.858Z,4.50
2017-09-03T10:50:10.418Z,4.30
2017-09-03T10:52:38.853Z,4.00
2017-09-03T10:55:06.450Z,4.30
2017-09-03T10:57:34.037Z,4.07
2017-09-03T11:00:01.591Z,3.50
2017-09-03T11:02:30.480Z,3.50
2017-09-03T11:04:58.124Z,3.30
2017-09-03T11:07:25.746Z,3.13
2017-09-03T11:09:53.413Z,3.17
2017-09-03T11:12:21.046Z,2.80
2017-09-03T11:14:48.664Z,3.17
2017-09-03T11:17:16.222Z,3.60
2017-09-03T11:19:43.781Z,3.20
2017-09-03T11:22:11.381Z,3.40
2017-09-03T11:24:39.754Z,3.10
2017-09-03T11:27:08.226Z,3.67
2017-09-03T11:29:35.808Z,2.93
2017-09-03T11:32:03.432Z,3.30
2017-09-03T11:34:30.974Z,3.30
2017-09-03T11:36:58.547Z,2.80
2017-09-03T11:39:26.117Z,3.10
2017-09-03T11:41:53.743Z,3.13
2017-09-03T11:44:21.318Z,3.60
2017-09-03T11:46:49.072Z,3.30
2017-09-03T11:49:16.707Z,3.57
2017-09-03T11:51:44.268Z,3.77
2017-09-03T11:54:12.056Z,3.60
2017-09-03T11:56:39.617Z,3.20
2017-09-03T11:59:10.301Z,3.37
2017-09-03T12:01:37.878Z,3.20
2017-09-03T12:04:05.505Z,3.43
2017-09-03T12:06:33.090Z,3.90
2017-09-03T12:09:00.754Z,3.80
2017-09-03T12:11:28.451Z,3.50
2017-09-03T12:13:56.022Z,3.63
2017-09-03T12:16:23.604Z,4.50
2017-09-03T12:18:51.190Z,4.10
2017-09-03T12:21:18.750Z,4.30
2017-09-03T12:23:47.349Z,4.30
2017-09-03T12:26:14.947Z,3.67
2017-09-03T12:28:42.567Z,3.40
2017-09-03T12:31:13.540Z,3.53
2017-09-03T12:33:41.146Z,4.23
2017-09-03T12:36:08.715Z,4.00
2017-09-03T12:38:36.290Z,3.67
2017-09-03T12:41:03.870Z,3.17
2017-09-03T12:43:31.423Z,3.20
2017-09-03T12:45:59.781Z,3.67
2017-09-03T12:48:27.346Z,3.40
2017-09-03T12:50:54.953Z,3.87
2017-09-03T12:53:22.528Z,4.03
2017-09-03T12:55:50.094Z,4.30
2017-09-03T12:58:17.674Z,4.00
2017-09-03T13:00:45.243Z,4.20
2017-09-03T13:03:12.808Z,4.30
2017-09-03T13:05:40.381Z,4.20
2017-09-03T13:08:08.026Z,4.00
2017-09-03T13:10:35.623Z,4.23
2017-09-03T13:13:03.190Z,3.80
2017-09-03T13:15:30.774Z,3.63
2017-09-03T13:17:58.349Z,3.70
2017-09-03T13:20:25.911Z,3.40
2017-09-03T13:22:53.478Z,3.53
2017-09-03T13:25:21.047Z,4.40
2017-09-03T13:27:48.630Z,3.90
2017-09-03T13:30:16.312Z,4.20
2017-09-03T13:32:43.894Z,4.30
2017-09-03T13:35:11.429Z,3.63
2017-09-03T13:37:39.005Z,3.50
2017-09-03T13:40:06.578Z,3.30
2017-09-03T13:42:34.179Z,3.90
2017-09-03T13:45:01.834Z,3.53
2017-09-03T13:47:29.430Z,3.50
2017-09-03T13:49:57.013Z,3.20
2017-09-03T13:52:24.590Z,3.27
2017-09-03T13:54:52.170Z,3.10
2017-09-03T13:57:19.744Z,3.23
2017-09-03T13:59:47.506Z,3.37
2017-09-03T14:02:15.090Z,3.40
2017-09-03T14:04:42.676Z,3.50
2017-09-03T14:07:10.239Z,2.90
2017-09-03T14:09:38.582Z,3.27
2017-09-03T14:12:06.179Z,3.83
2017-09-03T14:14:33.740Z,3.57
2017-09-03T14:17:01.311Z,3.67
2017-09-03T14:19:28.865Z,3.57
2017-09-03T14:21:56.472Z,3.30
2017-09-03T14:24:24.030Z,3.60
2017-09-03T14:26:51.653Z,3.60
2017-09-03T14:29:19.306Z,4.20
2017-09-03T14:31:46.894Z,3.93
2017-09-03T14:34:14.463Z,3.97
2017-09-03T14:36:42.051Z,3.23
2017-09-03T14:39:09.606Z,3.70
2017-09-03T14:41:37.194Z,4.03
2017-09-03T14:44:04.794Z,4.13
2017-09-03T14:46:32.386Z,3.53
2017-09-03T14:48:59.993Z,3.30
2017-09-03T14:51:27.606Z,3.07
2017-09-03T14:53:55.193Z,3.10
2017-09-03T14:56:22.879Z,3.20
2017-09-03T14:58:51.210Z,3.50
2017-09-03T15:01:18.806Z,3.70
2017-09-03T15:03:46.371Z,3.10
2017-09-03T15:06:13.958Z,3.23
2017-09-03T15:08:41.526Z,3.83
2017-09-03T15:11:09.119Z,3.60
2017-09-03T15:13:36.725Z,3.70
2017-09-03T15:16:04.339Z,4.00
2017-09-03T15:18:32.026Z,4.00
2017-09-03T15:21:00.597Z,4.37
2017-09-03T15:23:28.170Z,3.37
2017-09-03T15:25:55.806Z,4.47
2017-09-03T15:28:23.414Z,4.70
2017-09-03T15:30:51.009Z,3.57
2017-09-03T15:33:18.609Z,4.20
2017-09-03T15:35:46.487Z,4.20
2017-09-03T15:38:14.117Z,3.80
2017-09-03T15:40:41.700Z,4.67
2017-09-03T15:43:09.298Z,9.53
2017-09-03T15:45:36.875Z,4.83
2017-09-03T15:48:04.517Z,4.77
2017-09-03T15:50:33.073Z,4.30
2017-09-03T15:53:00.663Z,4.57
2017-09-03T15:55:28.288Z,4.33
2017-09-03T15:57:55.924Z,5.07
2017-09-03T16:00:23.537Z,5.10
2017-09-03T16:02:51.104Z,5.20
2017-09-03T16:05:18.680Z,4.77
2017-09-03T16:07:46.258Z,6.50
2017-09-03T16:10:13.853Z,5.30
2017-09-03T16:12:41.436Z,10.47
2017-09-03T16:15:09.085Z,5.43
2017-09-03T16:17:36.698Z,4.50
2017-09-03T16:20:04.368Z,4.77
2017-09-03T16:22:31.926Z,3.57
2017-09-03T16:24:59.543Z,3.50
2017-09-03T16:27:27.119Z,4.17
2017-09-03T16:29:55.022Z,4.10
2017-09-03T16:32:22.640Z,3.97
2017-09-03T16:34:50.255Z,3.53
2017-09-03T16:37:17.823Z,3.90
2017-09-03T16:39:45.408Z,4.10
2017-09-03T16:42:13.005Z,3.90
2017-09-03T16:44:41.330Z,4.30
2017-09-03T16:47:08.939Z,4.10
2017-09-03T16:49:36.497Z,4.33
2017-09-03T16:52:04.077Z,5.00
2017-09-03T16:54:31.657Z,4.33
2017-09-03T16:56:59.234Z,4.10
2017-09-03T16:59:26.810Z,4.70
2017-09-03T17:01:54.402Z,4.00
2017-09-03T17:04:21.942Z,4.87
2017-09-03T17:06:49.527Z,4.60
2017-09-03T17:09:17.102Z,4.70
2017-09-03T17:11:44.721Z,4.80
2017-09-03T17:14:12.282Z,4.50
2017-09-03T17:16:41.667Z,5.97
2017-09-03T17:19:10.991Z,5.40
2017-09-03T17:21:38.622Z,5.17
2017-09-03T17:24:06.191Z,5.07
2017-09-03T17:26:33.760Z,5.87
2017-09-03T17:29:01.433Z,5.50
2017-09-03T17:31:31.511Z,6.93
2017-09-03T17:33:59.139Z,5.03
2017-09-03T17:36:28.314Z,3.83
2017-09-03T17:39:00.489Z,4.17
2017-09-03T17:41:28.074Z,4.10
2017-09-03T17:43:56.298Z,4.07
2017-09-03T17:46:38.785Z,3.27
2017-09-03T17:49:06.353Z,3.47
2017-09-03T17:51:33.926Z,3.67
2017-09-03T17:54:01.599Z,3.50
2017-09-03T17:56:29.929Z,3.30
2017-09-03T17:58:58.296Z,3.30
2017-09-03T18:01:26.642Z,3.73
2017-09-03T18:03:54.310Z,3.33
2017-09-03T18:06:21.895Z,3.53
2017-09-03T18:08:49.454Z,3.30
2017-09-03T18:11:17.057Z,3.53
2017-09-03T18:13:44.653Z,4.27
2017-09-03T18:16:12.228Z,4.37
2017-09-03T18:18:39.792Z,4.03
2017-09-03T18:21:07.376Z,4.00
2017-09-03T18:23:34.959Z,4.17
2017-09-03T18:26:02.523Z,4.00
2017-09-03T18:28:31.482Z,4.23
2017-09-03T18:30:59.570Z,3.57
2017-09-03T18:33:27.133Z,4.10
2017-09-03T18:35:54.707Z,3.70
2017-09-03T18:38:25.805Z,4.17
2017-09-03T18:40:53.970Z,4.10
2017-09-03T18:43:22.447Z,4.93
2017-09-03T18:45:50.017Z,4.87
2017-09-03T18:48:17.594Z,5.30
2017-09-03T18:50:47.725Z,4.40
2017-09-03T18:53:19.812Z,5.60
2017-09-03T18:55:47.845Z,5.20
2017-09-03T18:58:16.150Z,4.67
2017-09-03T19:00:43.771Z,4.67
2017-09-03T19:03:27.141Z,4.63
2017-09-03T19:05:55.698Z,4.23
2017-09-03T19:08:23.291Z,4.80
2017-09-03T19:10:50.878Z,5.00
2017-09-03T19:13:18.450Z,4.50
2017-09-03T19:15:46.051Z,4.60
2017-09-03T19:18:13.610Z,4.87
2017-09-03T19:20:41.218Z,5.07
2017-09-03T19:23:08.851Z,5.43
2017-09-03T19:25:36.431Z,4.47
2017-09-03T19:28:03.983Z,4.20
2017-09-03T19:30:31.566Z,5.40
2017-09-03T19:32:59.224Z,4.90
2017-09-03T19:35:26.846Z,5.03
2017-09-03T19:37:56.646Z,6.00
2017-09-03T19:40:24.230Z,6.30
2017-09-03T19:42:52.542Z,6.27
2017-09-03T19:45:20.220Z,5.97
2017-09-03T19:47:47.848Z,5.23
2017-09-03T19:50:15.399Z,5.40
2017-09-03T19:52:42.986Z,5.53
2017-09-03T19:55:10.607Z,5.13
2017-09-03T19:57:38.236Z,5.63
2017-09-03T20:00:06.085Z,5.47
2017-09-03T20:02:33.738Z,5.77
2017-09-03T20:05:01.614Z,5.60
2017-09-03T20:07:29.204Z,5.67
2017-09-03T20:09:56.782Z,4.50
2017-09-03T20:12:24.378Z,6.20
2017-09-03T20:14:52.004Z,4.37
2017-09-03T20:17:19.635Z,5.40
2017-09-03T20:19:48.103Z,4.80
2017-09-03T20:22:15.668Z,5.23
2017-09-03T20:24:43.294Z,5.07
2017-09-03T20:27:11.123Z,5.33
2017-09-03T20:29:38.734Z,4.80
2017-09-03T20:32:06.365Z,5.73
2017-09-03T20:34:33.933Z,5.00
2017-09-03T20:37:01.535Z,5.40
2017-09-03T20:39:29.150Z,5.30
2017-09-03T20:41:56.722Z,4.97
2017-09-03T20:44:25.065Z,4.97
2017-09-03T20:46:52.754Z,4.53
2017-09-03T20:49:20.336Z,4.77
2017-09-03T20:51:47.992Z,4.80
2017-09-03T20:54:15.545Z,4.33
2017-09-03T20:56:43.912Z,5.27
2017-09-03T20:59:11.571Z,5.00
2017-09-03T21:01:39.121Z,4.80
2017-09-03T21:04:06.694Z,5.00
2017-09-03T21:06:35.043Z,4.87
2017-09-03T21:09:02.602Z,4.90
2017-09-03T21:11:30.183Z,4.10
2017-09-03T21:13:57.784Z,5.43
2017-09-03T21:16:25.380Z,5.30
2017-09-03T21:18:52.981Z,5.87
2017-09-03T21:21:20.583Z,5.47
2017-09-03T21:23:48.145Z,6.00
2017-09-03T21:26:15.742Z,5.20
2017-09-03T21:28:43.321Z,5.10
2017-09-03T21:31:10.923Z,5.20
2017-09-03T21:33:38.515Z,5.70
2017-09-03T21:36:06.081Z,5.40
2017-09-03T21:38:33.643Z,5.50
2017-09-03T21:41:01.235Z,5.00
2017-09-03T21:43:28.785Z,5.37
2017-09-03T21:45:56.378Z,4.93
2017-09-03T21:48:23.945Z,5.50
2017-09-03T21:50:51.525Z,5.57
2017-09-03T21:53:19.089Z,5.20
2017-09-03T21:55:46.673Z,5.63
2017-09-03T21:58:14.271Z,5.10
2017-09-03T22:00:41.857Z,5.37
2017-09-03T22:03:09.410Z,5.10
2017-09-03T22:05:36.997Z,4.90
2017-09-03T22:08:04.557Z,4.73
2017-09-03T22:10:32.129Z,5.10
2017-09-03T22:12:59.705Z,5.33
2017-09-03T22:15:27.282Z,5.10
2017-09-03T22:17:54.860Z,5.10
2017-09-03T22:20:22.409Z,4.83
2017-09-03T22:22:49.987Z,5.30
2017-09-03T22:25:17.583Z,5.20
2017-09-03T22:27:45.148Z,5.00
2017-09-03T22:30:12.714Z,6.13
2017-09-03T22:32:40.277Z,5.30
2017-09-03T22:35:07.845Z,5.40
2017-09-03T22:37:35.459Z,5.40
2017-09-03T22:40:03.010Z,5.43
2017-09-03T22:42:30.583Z,5.73
2017-09-03T22:44:58.310Z,5.50
2017-09-03T22:47:25.885Z,5.50
2017-09-03T22:49:53.446Z,6.20
2017-09-03T22:52:21.055Z,6.00
2017-09-03T22:54:48.630Z,5.93
2017-09-03T22:57:16.178Z,6.17
2017-09-03T22:59:43.797Z,6.60
2017-09-03T23:02:12.243Z,6.60
2017-09-03T23:04:39.813Z,5.93
2017-09-03T23:07:07.403Z,6.07
2017-09-03T23:09:35.758Z,5.97
2017-09-03T23:12:03.356Z,6.10
2017-09-03T23:14:30.905Z,6.47
2017-09-03T23:16:58.474Z,7.07
2017-09-03T23:19:26.056Z,5.70
2017-09-03T23:21:53.618Z,6.07
2017-09-03T23:24:21.345Z,6.87
2017-09-03T23:26:49.681Z,6.80
2017-09-03T23:29:17.281Z,6.47
2017-09-03T23:31:44.852Z,5.63
2017-09-03T23:34:13.194Z,6.40
2017-09-03T23:36:40.818Z,6.53
2017-09-03T23:39:08.381Z,6.03
2017-09-03T23:41:35.981Z,6.47
2017-09-03T23:44:03.550Z,5.50
2017-09-03T23:46:31.098Z,6.30
2017-09-03T23:48:58.690Z,6.63
2017-09-03T23:51:27.021Z,6.40
2017-09-03T23:53:54.616Z,6.00
2017-09-03T23:56:22.951Z,6.20
2017-09-03T23:58:50.510Z,6.03
